To NAV CANADA Home Page Login to a new session Search on AWWS site Feedback and Comments Disclaimer Vers la page française équivalente Tips FAQ What's new on the site To the Forecasts and Observations / NOTAM section To "File a Flight Plan" website Publications and other links Update of the User's profile FIC Telephone Numbers My Weather Data Folder Route Weather Data Regional Weather Data Local Weather Data To the Forecasts and Observations / NOTAM section
Request Generated 03/28/2017 at 02:22:46 UTC . Weather information available at that time is displayed.

METAR/TAF

ST. JOHN'S/ST. JOHN'S INTL/NL    

METAR CYYT 280200Z 32023G33KT 15SM BKN016 M05/M09 A2996 RMK SC7 CIG
ESTD SLP158=
METAR CYYT 280100Z 33021G38KT 15SM OVC020 M05/M10 A2997 RMK SC8 CIG
ESTD SLP161=
SPECI CYYT 280043Z 33020G32KT 15SM BKN016 M06/M10 A2997 RMK SC7 CIG
ESTD SLP160=
METAR CYYT 280000Z 33027G34KT 15SM -SHSN BKN016 M06/M11 A2996 RMK CU5
CIG ESTD TCU ASOCTD SLP157=

TAF CYYT 272338Z 2800/2824 33025G40KT P6SM BKN025 TEMPO 2800/2806 4SM
-SHSN BKN020
BECMG 2804/2806 31020G35KT
FM280600 31020G35KT 4SM -SHSN BKN020
RMK NXT FCST BY 280600Z=
Your time UTC time
Weather data provided by Environment Canada and NAV CANADA